Portada
METAR-TAF:

METAR-TAF

Aeroports :

Kuala Lumpur, Malàisia

latitud: 02-44N, longitud: 101-42E, altitud: 21 m

Observació

L'informe es va fer fa 39 minuts, a les 12:00 UTC
Vent 2 kt amb direcció variable
Temperatura 29°C
Humitat 79%
Pressió 1005 hPa
Visibilitat 10 km o més
Escasses núvols a una alçada de 3000 ft

METAR: WMKK 141200Z VRB02KT 9999 FEW030 29/25 Q1005 NOSIG

Hora: 20:39 (12:39 UTC)

Pronòstic

L'informe es va fer fa 1 hora i 39 minuts, a les 11:00 UTC
Pronòstic vàlid del 14 a les 12 UTC al 15 a les 18 UTC
Vent 2 kt amb direcció variable
Visibilitat 10 km o més
Escasses núvols a una alçada de 3000 ft
Probabilitat 40% :
Temporalment
l' 14 a les 20 UTC al 15 a les 00 UTC
Visibilitat: 4000 m
Escasses núvols a una alçada de 1700 ft, Cumulonimbus.
Núvols disperses a una alçada de 2000 ft
tempesta, pluja

TAF: WMKK 141100Z 1412/1518 VRB02KT 9999 FEW030 PROB40 TEMPO 1420/1500 4000 TSRA FEW017CB SCT020

Observacions i pronòstics meteorològics de més de 4000 aeroports (METAR i TAF).

Les estacions disponibles són els punts grocs i vermells al mapa.

Posi el ratolí al punt desitjat per veure el nom de l'estació.

Feu clic per veure les observacions i els pronòstics meteorològics.

Per canviar el mapa: feu clic els botons verds amb una creu de color negre per apropar; al botó verd amb un guió per allunyar la imatge; o en les fletxes verdes per a mapes adjacents.


METAR-TAF: